sensor_id;sensor_type;location;lat;lon;timestamp;temperature;humidity
5246;DHT22;54412;51.206;6.888;2023-06-10T00:00:46;23.10;99.90
5246;DHT22;54412;51.206;6.888;2023-06-10T00:03:11;23.10;99.90
5246;DHT22;54412;51.206;6.888;2023-06-10T00:05:41;23.00;99.90
5246;DHT22;54412;51.206;6.888;2023-06-10T00:08:07;23.00;99.90
5246;DHT22;54412;51.206;6.888;2023-06-10T00:10:37;23.00;99.90
5246;DHT22;54412;51.206;6.888;2023-06-10T00:13:06;23.00;99.90
5246;DHT22;54412;51.206;6.888;2023-06-10T00:15:35;22.90;99.90
5246;DHT22;54412;51.206;6.888;2023-06-10T00:18:01;22.90;99.90
5246;DHT22;54412;51.206;6.888;2023-06-10T00:20:27;22.90;99.90
5246;DHT22;54412;51.206;6.888;2023-06-10T00:22:53;22.80;99.90
5246;DHT22;54412;51.206;6.888;2023-06-10T00:25:19;22.70;99.90
5246;DHT22;54412;51.206;6.888;2023-06-10T00:27:45;22.70;99.90
5246;DHT22;54412;51.206;6.888;2023-06-10T00:30:11;22.70;99.90
5246;DHT22;54412;51.206;6.888;2023-06-10T00:32:37;22.70;99.90
5246;DHT22;54412;51.206;6.888;2023-06-10T00:35:06;22.70;99.90
5246;DHT22;54412;51.206;6.888;2023-06-10T00:37:33;22.80;99.90
5246;DHT22;54412;51.206;6.888;2023-06-10T00:40:03;22.70;99.90
5246;DHT22;54412;51.206;6.888;2023-06-10T00:42:29;22.60;99.90
5246;DHT22;54412;51.206;6.888;2023-06-10T00:44:55;22.50;99.90
5246;DHT22;54412;51.206;6.888;2023-06-10T00:47:21;22.50;99.90
5246;DHT22;54412;51.206;6.888;2023-06-10T00:49:49;22.50;99.90
5246;DHT22;54412;51.206;6.888;2023-06-10T00:52:17;22.40;99.90
5246;DHT22;54412;51.206;6.888;2023-06-10T00:54:45;22.40;99.90
5246;DHT22;54412;51.206;6.888;2023-06-10T00:57:12;22.50;99.90
5246;DHT22;54412;51.206;6.888;2023-06-10T00:59:40;22.50;99.90
5246;DHT22;54412;51.206;6.888;2023-06-10T01:02:07;22.40;99.90
5246;DHT22;54412;51.206;6.888;2023-06-10T01:04:33;22.30;99.90
5246;DHT22;54412;51.206;6.888;2023-06-10T01:10:16;22.40;99.90
5246;DHT22;54412;51.206;6.888;2023-06-10T01:12:55;22.40;99.90
5246;DHT22;54412;51.206;6.888;2023-06-10T01:15:31;22.40;99.90
5246;DHT22;54412;51.206;6.888;2023-06-10T01:18:00;22.30;99.90
5246;DHT22;54412;51.206;6.888;2023-06-10T01:20:29;22.30;99.90
5246;DHT22;54412;51.206;6.888;2023-06-10T01:22:59;22.20;99.90
5246;DHT22;54412;51.206;6.888;2023-06-10T01:25:26;22.20;99.90
5246;DHT22;54412;51.206;6.888;2023-06-10T01:28:13;22.00;99.90
5246;DHT22;54412;51.206;6.888;2023-06-10T01:31:02;22.00;99.90
5246;DHT22;54412;51.206;6.888;2023-06-10T01:33:45;21.80;99.90
5246;DHT22;54412;51.206;6.888;2023-06-10T01:36:13;21.80;99.90
5246;DHT22;54412;51.206;6.888;2023-06-10T01:38:44;21.70;99.90
5246;DHT22;54412;51.206;6.888;2023-06-10T01:41:13;21.70;99.90
5246;DHT22;54412;51.206;6.888;2023-06-10T01:43:43;21.60;99.90
5246;DHT22;54412;51.206;6.888;2023-06-10T01:46:09;21.60;99.90
5246;DHT22;54412;51.206;6.888;2023-06-10T01:48:37;21.50;99.90
5246;DHT22;54412;51.206;6.888;2023-06-10T01:51:04;21.50;99.90
5246;DHT22;54412;51.206;6.888;2023-06-10T01:53:30;21.50;99.90
5246;DHT22;54412;51.206;6.888;2023-06-10T01:55:55;21.40;99.90
5246;DHT22;54412;51.206;6.888;2023-06-10T01:58:21;21.40;99.90
5246;DHT22;54412;51.206;6.888;2023-06-10T02:00:47;21.30;99.90
5246;DHT22;54412;51.206;6.888;2023-06-10T02:03:13;21.30;99.90
5246;DHT22;54412;51.206;6.888;2023-06-10T02:05:39;21.30;99.90
5246;DHT22;54412;51.206;6.888;2023-06-10T02:08:05;21.20;99.90
5246;DHT22;54412;51.206;6.888;2023-06-10T02:10:31;21.20;99.90
5246;DHT22;54412;51.206;6.888;2023-06-10T02:12:57;21.20;99.90
5246;DHT22;54412;51.206;6.888;2023-06-10T02:15:22;21.20;99.90
5246;DHT22;54412;51.206;6.888;2023-06-10T02:17:48;21.00;99.90
5246;DHT22;54412;51.206;6.888;2023-06-10T02:20:17;20.90;99.90
5246;DHT22;54412;51.206;6.888;2023-06-10T02:22:42;20.90;99.90
5246;DHT22;54412;51.206;6.888;2023-06-10T02:25:09;20.90;99.90
5246;DHT22;54412;51.206;6.888;2023-06-10T02:27:35;20.90;99.90
5246;DHT22;54412;51.206;6.888;2023-06-10T02:30:01;21.00;99.90
5246;DHT22;54412;51.206;6.888;2023-06-10T02:32:26;21.00;99.90
5246;DHT22;54412;51.206;6.888;2023-06-10T02:34:53;21.10;99.90
5246;DHT22;54412;51.206;6.888;2023-06-10T02:37:19;21.20;99.90
5246;DHT22;54412;51.206;6.888;2023-06-10T02:39:45;21.20;99.90
5246;DHT22;54412;51.206;6.888;2023-06-10T02:42:11;21.10;99.90
5246;DHT22;54412;51.206;6.888;2023-06-10T02:44:37;21.10;99.90
5246;DHT22;54412;51.206;6.888;2023-06-10T02:47:04;21.00;99.90
5246;DHT22;54412;51.206;6.888;2023-06-10T02:49:30;21.00;99.90
5246;DHT22;54412;51.206;6.888;2023-06-10T02:51:55;20.80;99.90
5246;DHT22;54412;51.206;6.888;2023-06-10T02:54:25;20.80;99.90
5246;DHT22;54412;51.206;6.888;2023-06-10T02:56:52;20.80;99.90
5246;DHT22;54412;51.206;6.888;2023-06-10T02:59:18;20.70;99.90
5246;DHT22;54412;51.206;6.888;2023-06-10T03:01:45;20.60;99.90
5246;DHT22;54412;51.206;6.888;2023-06-10T03:04:11;20.60;99.90
5246;DHT22;54412;51.206;6.888;2023-06-10T03:06:38;20.50;99.90
5246;DHT22;54412;51.206;6.888;2023-06-10T03:09:06;20.40;99.90
5246;DHT22;54412;51.206;6.888;2023-06-10T03:11:32;20.50;99.90
5246;DHT22;54412;51.206;6.888;2023-06-10T03:13:58;20.40;99.90
5246;DHT22;54412;51.206;6.888;2023-06-10T03:16:24;20.40;99.90
5246;DHT22;54412;51.206;6.888;2023-06-10T03:18:50;20.50;99.90
5246;DHT22;54412;51.206;6.888;2023-06-10T03:21:17;20.50;99.90
5246;DHT22;54412;51.206;6.888;2023-06-10T03:23:43;20.50;99.90
5246;DHT22;54412;51.206;6.888;2023-06-10T03:26:09;20.60;99.90
5246;DHT22;54412;51.206;6.888;2023-06-10T03:28:35;20.50;99.90
5246;DHT22;54412;51.206;6.888;2023-06-10T03:31:01;20.60;99.90
5246;DHT22;54412;51.206;6.888;2023-06-10T03:33:27;20.60;99.90
5246;DHT22;54412;51.206;6.888;2023-06-10T03:35:52;20.60;99.90
5246;DHT22;54412;51.206;6.888;2023-06-10T03:38:18;20.70;99.90
5246;DHT22;54412;51.206;6.888;2023-06-10T03:40:44;20.70;99.90
5246;DHT22;54412;51.206;6.888;2023-06-10T03:43:10;20.70;99.90
5246;DHT22;54412;51.206;6.888;2023-06-10T03:45:36;20.70;99.90
5246;DHT22;54412;51.206;6.888;2023-06-10T03:48:02;20.70;99.90
5246;DHT22;54412;51.206;6.888;2023-06-10T03:50:29;20.60;99.90
5246;DHT22;54412;51.206;6.888;2023-06-10T03:52:54;20.60;99.90
5246;DHT22;54412;51.206;6.888;2023-06-10T03:55:20;20.60;99.90
5246;DHT22;54412;51.206;6.888;2023-06-10T03:57:47;20.60;99.90
5246;DHT22;54412;51.206;6.888;2023-06-10T04:00:15;20.60;99.90
5246;DHT22;54412;51.206;6.888;2023-06-10T04:02:43;20.50;99.90
5246;DHT22;54412;51.206;6.888;2023-06-10T04:05:15;20.60;99.90
5246;DHT22;54412;51.206;6.888;2023-06-10T04:07:42;20.50;99.90
5246;DHT22;54412;51.206;6.888;2023-06-10T04:10:09;20.60;99.90
5246;DHT22;54412;51.206;6.888;2023-06-10T04:12:38;20.60;99.90
5246;DHT22;54412;51.206;6.888;2023-06-10T04:15:04;20.70;99.90
5246;DHT22;54412;51.206;6.888;2023-06-10T04:17:31;20.70;99.90
5246;DHT22;54412;51.206;6.888;2023-06-10T04:19:57;20.60;99.90
5246;DHT22;54412;51.206;6.888;2023-06-10T04:22:23;20.60;99.90
5246;DHT22;54412;51.206;6.888;2023-06-10T04:24:49;20.60;99.90
5246;DHT22;54412;51.206;6.888;2023-06-10T04:27:15;20.60;99.90
5246;DHT22;54412;51.206;6.888;2023-06-10T04:29:40;20.60;99.90
5246;DHT22;54412;51.206;6.888;2023-06-10T04:32:07;20.60;99.90
5246;DHT22;54412;51.206;6.888;2023-06-10T04:34:33;20.60;99.90
5246;DHT22;54412;51.206;6.888;2023-06-10T04:36:59;20.60;99.90
5246;DHT22;54412;51.206;6.888;2023-06-10T04:39:25;20.70;99.90
5246;DHT22;54412;51.206;6.888;2023-06-10T04:41:51;20.70;99.90
5246;DHT22;54412;51.206;6.888;2023-06-10T04:44:17;20.80;99.90
5246;DHT22;54412;51.206;6.888;2023-06-10T04:46:44;20.80;99.90
5246;DHT22;54412;51.206;6.888;2023-06-10T04:49:10;20.80;99.90
5246;DHT22;54412;51.206;6.888;2023-06-10T04:51:39;20.90;99.90
5246;DHT22;54412;51.206;6.888;2023-06-10T04:54:05;20.80;99.90
5246;DHT22;54412;51.206;6.888;2023-06-10T04:56:31;20.80;99.90
5246;DHT22;54412;51.206;6.888;2023-06-10T04:58:57;20.90;99.90
5246;DHT22;54412;51.206;6.888;2023-06-10T05:01:23;21.00;99.90
5246;DHT22;54412;51.206;6.888;2023-06-10T05:03:49;21.00;99.90
5246;DHT22;54412;51.206;6.888;2023-06-10T05:06:14;21.00;99.90
5246;DHT22;54412;51.206;6.888;2023-06-10T05:08:40;21.10;99.90
5246;DHT22;54412;51.206;6.888;2023-06-10T05:11:06;21.10;99.90
5246;DHT22;54412;51.206;6.888;2023-06-10T05:13:32;21.10;99.90
5246;DHT22;54412;51.206;6.888;2023-06-10T05:15:58;21.10;99.90
5246;DHT22;54412;51.206;6.888;2023-06-10T05:18:24;21.10;99.90
5246;DHT22;54412;51.206;6.888;2023-06-10T05:20:50;21.10;99.90
5246;DHT22;54412;51.206;6.888;2023-06-10T05:23:16;21.20;99.90
5246;DHT22;54412;51.206;6.888;2023-06-10T05:25:42;21.20;99.90
5246;DHT22;54412;51.206;6.888;2023-06-10T05:28:08;21.30;99.90
5246;DHT22;54412;51.206;6.888;2023-06-10T05:30:35;21.30;99.90
5246;DHT22;54412;51.206;6.888;2023-06-10T05:33:02;21.40;99.90
5246;DHT22;54412;51.206;6.888;2023-06-10T05:35:28;21.40;99.90
5246;DHT22;54412;51.206;6.888;2023-06-10T05:37:54;21.50;99.90
5246;DHT22;54412;51.206;6.888;2023-06-10T05:40:20;21.50;99.90
5246;DHT22;54412;51.206;6.888;2023-06-10T05:42:45;21.60;99.90
5246;DHT22;54412;51.206;6.888;2023-06-10T05:45:11;21.50;99.90
5246;DHT22;54412;51.206;6.888;2023-06-10T05:47:36;21.60;99.90
5246;DHT22;54412;51.206;6.888;2023-06-10T05:50:02;21.70;99.90
5246;DHT22;54412;51.206;6.888;2023-06-10T05:52:35;21.70;99.90
5246;DHT22;54412;51.206;6.888;2023-06-10T05:55:04;21.70;99.90
5246;DHT22;54412;51.206;6.888;2023-06-10T05:57:31;21.80;99.90
5246;DHT22;54412;51.206;6.888;2023-06-10T05:59:56;21.80;99.90
5246;DHT22;54412;51.206;6.888;2023-06-10T06:02:22;21.80;99.90
5246;DHT22;54412;51.206;6.888;2023-06-10T06:04:48;21.90;99.90
5246;DHT22;54412;51.206;6.888;2023-06-10T06:07:14;22.00;99.90
5246;DHT22;54412;51.206;6.888;2023-06-10T06:09:39;22.10;99.90
5246;DHT22;54412;51.206;6.888;2023-06-10T06:12:06;22.20;99.90
5246;DHT22;54412;51.206;6.888;2023-06-10T06:14:32;22.30;99.90
5246;DHT22;54412;51.206;6.888;2023-06-10T06:17:02;22.30;99.90
5246;DHT22;54412;51.206;6.888;2023-06-10T06:19:28;22.30;99.90
5246;DHT22;54412;51.206;6.888;2023-06-10T06:21:54;22.40;99.90
5246;DHT22;54412;51.206;6.888;2023-06-10T06:24:20;22.40;99.90
5246;DHT22;54412;51.206;6.888;2023-06-10T06:26:45;22.50;99.90
5246;DHT22;54412;51.206;6.888;2023-06-10T06:29:11;22.60;99.90
5246;DHT22;54412;51.206;6.888;2023-06-10T06:31:37;22.60;99.90
5246;DHT22;54412;51.206;6.888;2023-06-10T06:34:02;22.70;99.90
5246;DHT22;54412;51.206;6.888;2023-06-10T06:36:28;22.80;99.90
5246;DHT22;54412;51.206;6.888;2023-06-10T06:38:53;22.80;99.90
5246;DHT22;54412;51.206;6.888;2023-06-10T06:41:19;22.90;99.90
5246;DHT22;54412;51.206;6.888;2023-06-10T06:43:47;23.00;99.90
5246;DHT22;54412;51.206;6.888;2023-06-10T06:46:13;23.10;99.90
5246;DHT22;54412;51.206;6.888;2023-06-10T06:48:39;23.20;99.90
5246;DHT22;54412;51.206;6.888;2023-06-10T06:51:04;23.20;99.90
5246;DHT22;54412;51.206;6.888;2023-06-10T06:53:30;23.30;99.90
5246;DHT22;54412;51.206;6.888;2023-06-10T06:55:56;23.50;99.90
5246;DHT22;54412;51.206;6.888;2023-06-10T06:58:21;23.50;99.90
5246;DHT22;54412;51.206;6.888;2023-06-10T07:00:47;23.50;99.90
5246;DHT22;54412;51.206;6.888;2023-06-10T07:03:13;23.60;99.90
5246;DHT22;54412;51.206;6.888;2023-06-10T07:05:38;23.70;99.90
5246;DHT22;54412;51.206;6.888;2023-06-10T07:08:04;23.70;99.90
5246;DHT22;54412;51.206;6.888;2023-06-10T07:10:30;23.70;99.90
5246;DHT22;54412;51.206;6.888;2023-06-10T07:12:56;23.80;99.90
5246;DHT22;54412;51.206;6.888;2023-06-10T07:15:21;23.90;99.90
5246;DHT22;54412;51.206;6.888;2023-06-10T07:17:47;24.00;99.90
5246;DHT22;54412;51.206;6.888;2023-06-10T07:20:13;24.10;99.90
5246;DHT22;54412;51.206;6.888;2023-06-10T07:22:40;24.10;99.90
5246;DHT22;54412;51.206;6.888;2023-06-10T07:25:07;24.20;99.90
5246;DHT22;54412;51.206;6.888;2023-06-10T07:27:32;24.30;99.90
5246;DHT22;54412;51.206;6.888;2023-06-10T07:29:58;24.40;99.90
5246;DHT22;54412;51.206;6.888;2023-06-10T07:32:26;24.30;99.90
5246;DHT22;54412;51.206;6.888;2023-06-10T07:34:51;24.40;99.90
5246;DHT22;54412;51.206;6.888;2023-06-10T07:37:18;24.60;99.90
5246;DHT22;54412;51.206;6.888;2023-06-10T07:39:44;24.70;99.90
5246;DHT22;54412;51.206;6.888;2023-06-10T07:42:10;24.70;99.90
5246;DHT22;54412;51.206;6.888;2023-06-10T07:44:36;24.80;99.90
5246;DHT22;54412;51.206;6.888;2023-06-10T07:47:02;24.90;99.90
5246;DHT22;54412;51.206;6.888;2023-06-10T07:49:27;24.90;99.90
5246;DHT22;54412;51.206;6.888;2023-06-10T07:51:54;25.00;99.90
5246;DHT22;54412;51.206;6.888;2023-06-10T07:54:23;25.10;99.90
5246;DHT22;54412;51.206;6.888;2023-06-10T07:56:49;25.10;99.90
5246;DHT22;54412;51.206;6.888;2023-06-10T07:59:14;25.20;99.90
5246;DHT22;54412;51.206;6.888;2023-06-10T08:01:41;25.20;99.90
5246;DHT22;54412;51.206;6.888;2023-06-10T08:04:08;25.40;99.90
5246;DHT22;54412;51.206;6.888;2023-06-10T08:06:34;25.40;99.90
5246;DHT22;54412;51.206;6.888;2023-06-10T08:08:59;25.50;99.90
5246;DHT22;54412;51.206;6.888;2023-06-10T08:11:25;25.50;99.90
5246;DHT22;54412;51.206;6.888;2023-06-10T08:13:53;25.60;99.90
5246;DHT22;54412;51.206;6.888;2023-06-10T08:16:19;25.70;99.90
5246;DHT22;54412;51.206;6.888;2023-06-10T08:18:45;25.70;99.90
5246;DHT22;54412;51.206;6.888;2023-06-10T08:21:11;25.80;99.90
5246;DHT22;54412;51.206;6.888;2023-06-10T08:23:36;25.80;99.90
5246;DHT22;54412;51.206;6.888;2023-06-10T08:26:02;25.90;99.90
5246;DHT22;54412;51.206;6.888;2023-06-10T08:28:28;25.90;99.90
5246;DHT22;54412;51.206;6.888;2023-06-10T08:30:53;26.00;99.90
5246;DHT22;54412;51.206;6.888;2023-06-10T08:33:19;26.10;99.90
5246;DHT22;54412;51.206;6.888;2023-06-10T08:35:44;26.00;99.90
5246;DHT22;54412;51.206;6.888;2023-06-10T08:38:10;26.10;99.90
5246;DHT22;54412;51.206;6.888;2023-06-10T08:40:37;26.20;99.90
5246;DHT22;54412;51.206;6.888;2023-06-10T08:43:05;26.30;99.90
5246;DHT22;54412;51.206;6.888;2023-06-10T08:45:35;26.40;99.90
5246;DHT22;54412;51.206;6.888;2023-06-10T08:48:05;26.40;99.90
5246;DHT22;54412;51.206;6.888;2023-06-10T08:50:35;26.50;99.90
5246;DHT22;54412;51.206;6.888;2023-06-10T08:53:04;26.60;99.90
5246;DHT22;54412;51.206;6.888;2023-06-10T08:55:38;26.70;99.90
5246;DHT22;54412;51.206;6.888;2023-06-10T08:58:07;26.80;99.90
5246;DHT22;54412;51.206;6.888;2023-06-10T09:00:34;26.90;99.90
5246;DHT22;54412;51.206;6.888;2023-06-10T09:03:01;27.00;99.90
5246;DHT22;54412;51.206;6.888;2023-06-10T09:05:29;27.10;99.90
5246;DHT22;54412;51.206;6.888;2023-06-10T09:07:57;27.10;99.90
5246;DHT22;54412;51.206;6.888;2023-06-10T09:10:23;27.10;99.90
5246;DHT22;54412;51.206;6.888;2023-06-10T09:12:48;27.20;99.90
5246;DHT22;54412;51.206;6.888;2023-06-10T09:15:14;27.30;99.90
5246;DHT22;54412;51.206;6.888;2023-06-10T09:17:42;27.40;99.90
5246;DHT22;54412;51.206;6.888;2023-06-10T09:20:08;27.40;99.90
5246;DHT22;54412;51.206;6.888;2023-06-10T09:22:34;27.50;99.90
5246;DHT22;54412;51.206;6.888;2023-06-10T09:25:11;27.60;99.90
5246;DHT22;54412;51.206;6.888;2023-06-10T09:27:51;27.60;99.80
5246;DHT22;54412;51.206;6.888;2023-06-10T09:32:56;27.80;99.90
5246;DHT22;54412;51.206;6.888;2023-06-10T09:35:29;27.80;99.70
5246;DHT22;54412;51.206;6.888;2023-06-10T09:37:58;27.90;99.80
5246;DHT22;54412;51.206;6.888;2023-06-10T09:40:25;27.90;99.90
5246;DHT22;54412;51.206;6.888;2023-06-10T09:43:00;28.00;99.30
5246;DHT22;54412;51.206;6.888;2023-06-10T09:45:32;28.10;99.60
5246;DHT22;54412;51.206;6.888;2023-06-10T09:47:58;28.20;99.50
5246;DHT22;54412;51.206;6.888;2023-06-10T09:50:23;28.30;98.50
5246;DHT22;54412;51.206;6.888;2023-06-10T09:52:50;28.10;98.80
5246;DHT22;54412;51.206;6.888;2023-06-10T09:55:17;27.90;98.70
5246;DHT22;54412;51.206;6.888;2023-06-10T09:57:44;27.90;99.10
5246;DHT22;54412;51.206;6.888;2023-06-10T10:00:13;27.90;99.10
5246;DHT22;54412;51.206;6.888;2023-06-10T10:02:58;27.80;98.80
5246;DHT22;54412;51.206;6.888;2023-06-10T10:05:24;27.70;99.10
5246;DHT22;54412;51.206;6.888;2023-06-10T10:07:51;27.50;99.10
5246;DHT22;54412;51.206;6.888;2023-06-10T10:10:20;27.30;99.60
5246;DHT22;54412;51.206;6.888;2023-06-10T10:12:47;27.20;99.80
5246;DHT22;54412;51.206;6.888;2023-06-10T10:15:16;27.10;99.90
5246;DHT22;54412;51.206;6.888;2023-06-10T10:18:06;27.10;99.90
5246;DHT22;54412;51.206;6.888;2023-06-10T10:20:37;27.30;99.90
5246;DHT22;54412;51.206;6.888;2023-06-10T10:23:34;27.30;98.70
5246;DHT22;54412;51.206;6.888;2023-06-10T10:26:10;27.30;99.10
5246;DHT22;54412;51.206;6.888;2023-06-10T10:29:20;27.30;99.10
5246;DHT22;54412;51.206;6.888;2023-06-10T10:31:39;27.40;97.80
5246;DHT22;54412;51.206;6.888;2023-06-10T10:34:09;27.40;98.10
5246;DHT22;54412;51.206;6.888;2023-06-10T10:36:40;27.20;98.30
5246;DHT22;54412;51.206;6.888;2023-06-10T10:39:07;27.10;98.90
5246;DHT22;54412;51.206;6.888;2023-06-10T10:41:35;27.00;99.10
5246;DHT22;54412;51.206;6.888;2023-06-10T10:44:03;27.00;99.80
5246;DHT22;54412;51.206;6.888;2023-06-10T10:46:42;26.90;99.80
5246;DHT22;54412;51.206;6.888;2023-06-10T10:49:11;26.90;99.20
5246;DHT22;54412;51.206;6.888;2023-06-10T10:51:54;26.90;99.40
5246;DHT22;54412;51.206;6.888;2023-06-10T10:54:39;26.90;99.50
5246;DHT22;54412;51.206;6.888;2023-06-10T10:57:17;27.00;99.00
5246;DHT22;54412;51.206;6.888;2023-06-10T11:05:01;27.10;98.60
5246;DHT22;54412;51.206;6.888;2023-06-10T11:07:30;27.40;98.90
5246;DHT22;54412;51.206;6.888;2023-06-10T11:10:12;27.80;98.20
5246;DHT22;54412;51.206;6.888;2023-06-10T11:15:17;27.80;96.50
5246;DHT22;54412;51.206;6.888;2023-06-10T11:18:12;27.70;96.70
5246;DHT22;54412;51.206;6.888;2023-06-10T11:20:51;27.50;96.10
5246;DHT22;54412;51.206;6.888;2023-06-10T11:29:06;28.30;96.20
5246;DHT22;54412;51.206;6.888;2023-06-10T11:31:39;28.50;96.20
5246;DHT22;54412;51.206;6.888;2023-06-10T11:34:07;28.70;95.10
5246;DHT22;54412;51.206;6.888;2023-06-10T11:36:38;28.80;94.30
5246;DHT22;54412;51.206;6.888;2023-06-10T11:39:06;28.90;93.50
5246;DHT22;54412;51.206;6.888;2023-06-10T11:41:33;29.00;93.40
5246;DHT22;54412;51.206;6.888;2023-06-10T11:44:10;29.20;94.80
5246;DHT22;54412;51.206;6.888;2023-06-10T11:46:38;29.10;94.50
5246;DHT22;54412;51.206;6.888;2023-06-10T11:49:05;28.80;93.30
5246;DHT22;54412;51.206;6.888;2023-06-10T11:51:36;28.50;93.80
5246;DHT22;54412;51.206;6.888;2023-06-10T11:54:04;28.20;93.60
5246;DHT22;54412;51.206;6.888;2023-06-10T11:56:31;28.00;94.40
5246;DHT22;54412;51.206;6.888;2023-06-10T11:59:03;27.90;94.70
5246;DHT22;54412;51.206;6.888;2023-06-10T12:01:33;27.90;95.10
5246;DHT22;54412;51.206;6.888;2023-06-10T12:04:04;27.80;94.70
5246;DHT22;54412;51.206;6.888;2023-06-10T12:09:20;27.60;94.80
5246;DHT22;54412;51.206;6.888;2023-06-10T12:11:59;27.50;95.10
5246;DHT22;54412;51.206;6.888;2023-06-10T12:19:59;27.40;95.70
5246;DHT22;54412;51.206;6.888;2023-06-10T12:22:25;27.30;95.20
5246;DHT22;54412;51.206;6.888;2023-06-10T12:25:03;27.30;95.30
5246;DHT22;54412;51.206;6.888;2023-06-10T12:27:32;27.30;95.30
5246;DHT22;54412;51.206;6.888;2023-06-10T12:30:01;27.30;95.10
5246;DHT22;54412;51.206;6.888;2023-06-10T12:32:44;27.30;95.00
5246;DHT22;54412;51.206;6.888;2023-06-10T12:35:16;27.30;95.00
5246;DHT22;54412;51.206;6.888;2023-06-10T12:38:03;27.30;95.20
5246;DHT22;54412;51.206;6.888;2023-06-10T12:40:37;27.40;95.80
5246;DHT22;54412;51.206;6.888;2023-06-10T12:43:06;27.50;96.20
5246;DHT22;54412;51.206;6.888;2023-06-10T12:45:32;27.50;96.20
5246;DHT22;54412;51.206;6.888;2023-06-10T12:48:19;27.50;95.20
5246;DHT22;54412;51.206;6.888;2023-06-10T12:50:51;27.60;95.50
5246;DHT22;54412;51.206;6.888;2023-06-10T12:53:19;27.80;94.30
5246;DHT22;54412;51.206;6.888;2023-06-10T12:55:47;28.10;95.50
5246;DHT22;54412;51.206;6.888;2023-06-10T12:58:13;28.50;94.80
5246;DHT22;54412;51.206;6.888;2023-06-10T13:00:39;28.80;95.00
5246;DHT22;54412;51.206;6.888;2023-06-10T13:03:06;29.10;93.70
5246;DHT22;54412;51.206;6.888;2023-06-10T13:05:32;29.10;91.70
5246;DHT22;54412;51.206;6.888;2023-06-10T13:07:59;28.80;92.40
5246;DHT22;54412;51.206;6.888;2023-06-10T13:10:25;28.50;93.00
5246;DHT22;54412;51.206;6.888;2023-06-10T13:12:52;28.30;94.20
5246;DHT22;54412;51.206;6.888;2023-06-10T13:15:19;28.20;94.20
5246;DHT22;54412;51.206;6.888;2023-06-10T13:17:45;28.10;94.90
5246;DHT22;54412;51.206;6.888;2023-06-10T13:20:16;28.00;94.60
5246;DHT22;54412;51.206;6.888;2023-06-10T13:22:42;27.90;95.40
5246;DHT22;54412;51.206;6.888;2023-06-10T13:25:08;27.80;95.90
5246;DHT22;54412;51.206;6.888;2023-06-10T13:27:35;27.80;95.90
5246;DHT22;54412;51.206;6.888;2023-06-10T13:30:05;27.80;96.40
5246;DHT22;54412;51.206;6.888;2023-06-10T13:32:32;27.80;96.10
5246;DHT22;54412;51.206;6.888;2023-06-10T13:34:58;27.90;94.90
5246;DHT22;54412;51.206;6.888;2023-06-10T13:37:23;27.80;95.50
5246;DHT22;54412;51.206;6.888;2023-06-10T13:39:49;27.90;95.60
5246;DHT22;54412;51.206;6.888;2023-06-10T13:42:17;28.00;94.60
5246;DHT22;54412;51.206;6.888;2023-06-10T13:44:43;28.00;95.20
5246;DHT22;54412;51.206;6.888;2023-06-10T13:47:09;28.00;94.60
5246;DHT22;54412;51.206;6.888;2023-06-10T13:49:35;28.00;94.90
5246;DHT22;54412;51.206;6.888;2023-06-10T13:52:01;28.00;95.10
5246;DHT22;54412;51.206;6.888;2023-06-10T13:54:27;27.90;95.20
5246;DHT22;54412;51.206;6.888;2023-06-10T13:56:53;27.90;94.60
5246;DHT22;54412;51.206;6.888;2023-06-10T13:59:19;27.80;94.70
5246;DHT22;54412;51.206;6.888;2023-06-10T14:01:45;27.80;94.90
5246;DHT22;54412;51.206;6.888;2023-06-10T14:04:11;27.80;95.10
5246;DHT22;54412;51.206;6.888;2023-06-10T14:06:37;27.80;95.70
5246;DHT22;54412;51.206;6.888;2023-06-10T14:09:03;27.80;95.40
5246;DHT22;54412;51.206;6.888;2023-06-10T14:11:29;27.90;95.90
5246;DHT22;54412;51.206;6.888;2023-06-10T14:13:55;28.00;94.80
5246;DHT22;54412;51.206;6.888;2023-06-10T14:16:23;28.00;95.60
5246;DHT22;54412;51.206;6.888;2023-06-10T14:18:49;27.90;95.00
5246;DHT22;54412;51.206;6.888;2023-06-10T14:21:16;27.90;93.80
5246;DHT22;54412;51.206;6.888;2023-06-10T14:23:42;27.80;92.00
5246;DHT22;54412;51.206;6.888;2023-06-10T14:26:09;27.80;91.90
5246;DHT22;54412;51.206;6.888;2023-06-10T14:28:35;27.90;92.20
5246;DHT22;54412;51.206;6.888;2023-06-10T14:31:01;28.10;93.80
5246;DHT22;54412;51.206;6.888;2023-06-10T14:33:27;28.20;93.40
5246;DHT22;54412;51.206;6.888;2023-06-10T14:35:52;28.30;93.50
5246;DHT22;54412;51.206;6.888;2023-06-10T14:38:18;28.40;93.80
5246;DHT22;54412;51.206;6.888;2023-06-10T14:40:44;28.60;94.40
5246;DHT22;54412;51.206;6.888;2023-06-10T14:43:10;28.70;93.90
5246;DHT22;54412;51.206;6.888;2023-06-10T14:45:39;29.00;93.80
5246;DHT22;54412;51.206;6.888;2023-06-10T14:48:06;29.10;93.20
5246;DHT22;54412;51.206;6.888;2023-06-10T14:50:35;29.20;93.60
5246;DHT22;54412;51.206;6.888;2023-06-10T14:53:01;29.30;93.60
5246;DHT22;54412;51.206;6.888;2023-06-10T14:55:27;29.40;92.40
5246;DHT22;54412;51.206;6.888;2023-06-10T14:57:52;29.50;92.60
5246;DHT22;54412;51.206;6.888;2023-06-10T15:00:19;29.50;92.50
5246;DHT22;54412;51.206;6.888;2023-06-10T15:02:49;29.50;92.10
5246;DHT22;54412;51.206;6.888;2023-06-10T15:05:16;29.50;91.60
5246;DHT22;54412;51.206;6.888;2023-06-10T15:07:44;29.40;91.40
5246;DHT22;54412;51.206;6.888;2023-06-10T15:10:10;29.20;91.70
5246;DHT22;54412;51.206;6.888;2023-06-10T15:12:36;29.20;92.50
5246;DHT22;54412;51.206;6.888;2023-06-10T15:15:03;29.30;92.10
5246;DHT22;54412;51.206;6.888;2023-06-10T15:17:29;29.20;92.30
5246;DHT22;54412;51.206;6.888;2023-06-10T15:19:55;29.20;92.10
5246;DHT22;54412;51.206;6.888;2023-06-10T15:22:21;29.30;91.90
5246;DHT22;54412;51.206;6.888;2023-06-10T15:24:47;29.30;91.50
5246;DHT22;54412;51.206;6.888;2023-06-10T15:27:13;29.30;91.30
5246;DHT22;54412;51.206;6.888;2023-06-10T15:29:39;29.30;91.00
5246;DHT22;54412;51.206;6.888;2023-06-10T15:32:05;29.40;91.10
5246;DHT22;54412;51.206;6.888;2023-06-10T15:34:31;29.40;90.50
5246;DHT22;54412;51.206;6.888;2023-06-10T15:36:56;29.40;90.70
5246;DHT22;54412;51.206;6.888;2023-06-10T15:39:22;29.40;90.50
5246;DHT22;54412;51.206;6.888;2023-06-10T15:41:49;29.40;90.50
5246;DHT22;54412;51.206;6.888;2023-06-10T15:44:15;29.30;89.70
5246;DHT22;54412;51.206;6.888;2023-06-10T15:46:41;29.10;90.40
5246;DHT22;54412;51.206;6.888;2023-06-10T15:49:07;29.00;90.30
5246;DHT22;54412;51.206;6.888;2023-06-10T15:51:33;28.80;90.60
5246;DHT22;54412;51.206;6.888;2023-06-10T15:53:59;28.70;90.90
5246;DHT22;54412;51.206;6.888;2023-06-10T15:56:24;28.60;91.00
5246;DHT22;54412;51.206;6.888;2023-06-10T15:58:51;28.50;90.90
5246;DHT22;54412;51.206;6.888;2023-06-10T16:01:16;28.40;91.40
5246;DHT22;54412;51.206;6.888;2023-06-10T16:03:42;28.40;91.40
5246;DHT22;54412;51.206;6.888;2023-06-10T16:06:08;28.30;91.40
5246;DHT22;54412;51.206;6.888;2023-06-10T16:08:34;28.40;91.40
5246;DHT22;54412;51.206;6.888;2023-06-10T16:11:00;28.50;91.10
5246;DHT22;54412;51.206;6.888;2023-06-10T16:13:26;28.50;91.10
5246;DHT22;54412;51.206;6.888;2023-06-10T16:15:51;28.60;91.30